Main page
METAR-TAF:

METAR-TAF

Airports :

Kushok Bakula Rimpochee Airport

Leh, India

latitude: 34-08-09N, longitude: 077-32-47E, elevation: 3256 m

METAR: missing

Time: 13:27 (07:57 UTC)

Forecast

The report was made 4 hours and 27 minutes ago, at 03:30 UTC
Forecast valid from 30 at 06 UTC to 30 at 18 UTC
Wind 2 kt from variable directions
Visibility: 6000 m
Scattered clouds at a height of 2000 ft
Scattered clouds at a height of 6000 ft
Broken clouds at a height of 10000 ft
Temporary
from 30 at 08 UTC to 30 at 10 UTC
Wind 25 kt from the West/Northwest with gusts up to 35 kt
Visibility: 5000 m
Scattered clouds at a height of 4000 ft
Few clouds at a height of 5000 ft, Cumulonimbus.
Broken clouds at a height of 10000 ft
light rain
Becoming
between and UTC
From UTC
Wind 5 kt from the East with gusts up to 30 kt
Visibility: 6000 m
Scattered clouds at a height of 2500 ft
Broken clouds at a height of 9000 ft
Temporary
from 30 at 10 UTC to 30 at 14 UTC
Visibility: 6000 m
Scattered clouds at a height of 2500 ft
Few clouds at a height of 3000 ft, Cumulonimbus.
Scattered clouds at a height of 10000 ft
thunderstorm

TAF: VILH 300330Z 3006/3018 VRB02KT 6000 SCT020 SCT060 BKN100 TEMPO 3008/3010 30025G35KT 5000 -RA SCT040 FEW050CB BKN100 BECMG FM 301000Z 30015G30KTVIPK 300330Z 3006/3018 09005KT 6000 SCT025 BKN090 TEMPO 3010/3014 6000 TS SCT025 FEW030CB SCT100

Weather observations and forecasts of more than 4000 airports (METAR and TAF reports).

The available stations are represented by yellow and red dots on the map.

Hover mouse over dot to see the name of the station.

Then click to see weather observations and forecasts.

To change the map : click on the green buttons with a black cross to zoom in, on the green button with a dash to zoom out, or on the green arrows for adjacent maps.


METAR-TAF: